sensor_id;sensor_type;location;lat;lon;timestamp;pressure;altitude;pressure_sealevel;temperature;humidity
21086;BME280;72320;50.082;20.000;2024-03-17T00:01:36;99111.77;;;10.00;78.77
21086;BME280;72320;50.082;20.000;2024-03-17T00:04:18;99113.13;;;9.99;78.67
21086;BME280;72320;50.082;20.000;2024-03-17T00:07:06;99111.50;;;9.99;78.56
21086;BME280;72320;50.082;20.000;2024-03-17T00:09:51;99113.53;;;9.98;78.56
21086;BME280;72320;50.082;20.000;2024-03-17T00:12:38;99115.82;;;9.99;78.39
21086;BME280;72320;50.082;20.000;2024-03-17T00:15:24;99116.48;;;9.98;78.25
21086;BME280;72320;50.082;20.000;2024-03-17T00:18:10;99119.89;;;9.97;78.20
21086;BME280;72320;50.082;20.000;2024-03-17T00:20:57;99120.77;;;9.94;78.16
21086;BME280;72320;50.082;20.000;2024-03-17T00:23:23;99122.06;;;9.95;77.94
21086;BME280;72320;50.082;20.000;2024-03-17T00:26:09;99126.89;;;9.93;77.86
21086;BME280;72320;50.082;20.000;2024-03-17T00:28:55;99128.08;;;9.91;77.73
21086;BME280;72320;50.082;20.000;2024-03-17T00:31:29;99126.92;;;9.89;77.61
21086;BME280;72320;50.082;20.000;2024-03-17T00:34:14;99125.37;;;9.82;77.58
21086;BME280;72320;50.082;20.000;2024-03-17T00:37:00;99134.45;;;9.80;77.60
21086;BME280;72320;50.082;20.000;2024-03-17T00:39:46;99140.30;;;9.76;77.59
21086;BME280;72320;50.082;20.000;2024-03-17T00:42:12;99143.76;;;9.66;77.50
21086;BME280;72320;50.082;20.000;2024-03-17T00:44:59;99146.89;;;9.27;77.68
21086;BME280;72320;50.082;20.000;2024-03-17T00:47:27;99146.16;;;8.92;77.84
21086;BME280;72320;50.082;20.000;2024-03-17T00:50:13;99153.27;;;8.83;78.05
21086;BME280;72320;50.082;20.000;2024-03-17T00:52:42;99157.82;;;8.50;78.43
21086;BME280;72320;50.082;20.000;2024-03-17T00:55:29;99165.53;;;8.20;78.62
21086;BME280;72320;50.082;20.000;2024-03-17T00:57:55;99166.02;;;8.03;78.84
21086;BME280;72320;50.082;20.000;2024-03-17T01:00:21;99173.77;;;7.74;79.14
21086;BME280;72320;50.082;20.000;2024-03-17T01:02:51;99180.20;;;7.51;79.62
21086;BME280;72320;50.082;20.000;2024-03-17T01:05:19;99184.10;;;7.39;79.87
21086;BME280;72320;50.082;20.000;2024-03-17T01:07:45;99183.00;;;7.23;80.31
21086;BME280;72320;50.082;20.000;2024-03-17T01:10:13;99186.49;;;7.12;80.69
21086;BME280;72320;50.082;20.000;2024-03-17T01:12:59;99191.79;;;7.08;81.17
21086;BME280;72320;50.082;20.000;2024-03-17T01:15:27;99192.38;;;6.92;81.40
21086;BME280;72320;50.082;20.000;2024-03-17T01:18:13;99205.41;;;6.74;81.70
21086;BME280;72320;50.082;20.000;2024-03-17T01:20:59;99207.06;;;6.50;82.21
21086;BME280;72320;50.082;20.000;2024-03-17T01:23:48;99194.34;;;6.35;82.39
21086;BME280;72320;50.082;20.000;2024-03-17T01:26:34;99196.39;;;6.39;82.59
21086;BME280;72320;50.082;20.000;2024-03-17T01:29:21;99199.57;;;6.40;82.81
21086;BME280;72320;50.082;20.000;2024-03-17T01:32:06;99201.05;;;6.39;82.99
21086;BME280;72320;50.082;20.000;2024-03-17T01:34:52;99205.90;;;6.32;83.13
21086;BME280;72320;50.082;20.000;2024-03-17T01:37:39;99210.63;;;6.28;83.25
21086;BME280;72320;50.082;20.000;2024-03-17T01:40:25;99212.02;;;6.22;83.30
21086;BME280;72320;50.082;20.000;2024-03-17T01:43:11;99216.59;;;6.16;83.32
21086;BME280;72320;50.082;20.000;2024-03-17T01:45:58;99221.20;;;6.15;83.45
21086;BME280;72320;50.082;20.000;2024-03-17T01:48:45;99219.35;;;6.18;83.44
21086;BME280;72320;50.082;20.000;2024-03-17T01:51:31;99229.73;;;6.20;83.45
21086;BME280;72320;50.082;20.000;2024-03-17T01:54:17;99228.02;;;6.20;83.46
21086;BME280;72320;50.082;20.000;2024-03-17T01:57:02;99233.11;;;6.21;83.37
21086;BME280;72320;50.082;20.000;2024-03-17T01:59:28;99237.12;;;6.33;83.26
21086;BME280;72320;50.082;20.000;2024-03-17T02:02:15;99238.02;;;6.37;83.28
21086;BME280;72320;50.082;20.000;2024-03-17T02:05:01;99250.21;;;6.41;83.10
21086;BME280;72320;50.082;20.000;2024-03-17T02:07:48;99256.41;;;6.35;82.87
21086;BME280;72320;50.082;20.000;2024-03-17T02:10:16;99263.88;;;6.40;82.68
21086;BME280;72320;50.082;20.000;2024-03-17T02:13:02;99273.14;;;6.43;82.46
21086;BME280;72320;50.082;20.000;2024-03-17T02:15:51;99283.63;;;6.63;82.14
21086;BME280;72320;50.082;20.000;2024-03-17T02:18:17;99288.73;;;6.73;81.88
21086;BME280;72320;50.082;20.000;2024-03-17T02:21:03;99293.38;;;6.80;81.55
21086;BME280;72320;50.082;20.000;2024-03-17T02:23:49;99299.30;;;6.76;81.44
21086;BME280;72320;50.082;20.000;2024-03-17T02:26:30;99309.80;;;6.71;81.00
21086;BME280;72320;50.082;20.000;2024-03-17T02:29:16;99307.58;;;6.79;80.94
21086;BME280;72320;50.082;20.000;2024-03-17T02:32:03;99317.94;;;6.72;80.47
21086;BME280;72320;50.082;20.000;2024-03-17T02:34:49;99319.64;;;6.77;80.08
21086;BME280;72320;50.082;20.000;2024-03-17T02:37:37;99327.41;;;6.87;79.81
21086;BME280;72320;50.082;20.000;2024-03-17T02:40:22;99328.91;;;6.92;79.42
21086;BME280;72320;50.082;20.000;2024-03-17T02:43:08;99329.54;;;6.97;79.01
21086;BME280;72320;50.082;20.000;2024-03-17T02:45:54;99336.30;;;7.00;78.75
21086;BME280;72320;50.082;20.000;2024-03-17T02:48:41;99342.17;;;6.99;78.37
21086;BME280;72320;50.082;20.000;2024-03-17T02:51:30;99348.63;;;6.98;77.86
21086;BME280;72320;50.082;20.000;2024-03-17T02:53:56;99347.10;;;7.02;77.27
21086;BME280;72320;50.082;20.000;2024-03-17T02:56:42;99346.58;;;6.97;76.84
21086;BME280;72320;50.082;20.000;2024-03-17T02:59:28;99350.52;;;6.89;76.29
21086;BME280;72320;50.082;20.000;2024-03-17T03:02:02;99354.98;;;6.87;76.05
21086;BME280;72320;50.082;20.000;2024-03-17T03:04:48;99355.35;;;6.85;75.56
21086;BME280;72320;50.082;20.000;2024-03-17T03:07:37;99361.02;;;6.82;75.34
21086;BME280;72320;50.082;20.000;2024-03-17T03:10:23;99362.01;;;6.77;75.09
21086;BME280;72320;50.082;20.000;2024-03-17T03:13:09;99362.17;;;6.78;74.88
21086;BME280;72320;50.082;20.000;2024-03-17T03:15:55;99367.63;;;6.69;74.59
21086;BME280;72320;50.082;20.000;2024-03-17T03:18:41;99366.86;;;6.70;74.47
21086;BME280;72320;50.082;20.000;2024-03-17T03:21:27;99368.27;;;6.67;74.29
21086;BME280;72320;50.082;20.000;2024-03-17T03:24:14;99365.13;;;6.67;74.01
21086;BME280;72320;50.082;20.000;2024-03-17T03:27:00;99364.59;;;6.69;73.80
21086;BME280;72320;50.082;20.000;2024-03-17T03:29:46;99365.60;;;6.70;73.59
21086;BME280;72320;50.082;20.000;2024-03-17T03:32:32;99368.98;;;6.69;73.37
21086;BME280;72320;50.082;20.000;2024-03-17T03:34:58;99368.70;;;6.70;73.30
21086;BME280;72320;50.082;20.000;2024-03-17T03:37:25;99372.99;;;6.69;73.19
21086;BME280;72320;50.082;20.000;2024-03-17T03:40:11;99373.05;;;6.71;73.19
21086;BME280;72320;50.082;20.000;2024-03-17T03:43:03;99376.30;;;6.68;73.11
21086;BME280;72320;50.082;20.000;2024-03-17T03:45:50;99378.91;;;6.66;73.04
21086;BME280;72320;50.082;20.000;2024-03-17T03:48:16;99377.61;;;6.63;72.99
21086;BME280;72320;50.082;20.000;2024-03-17T03:50:43;99380.17;;;6.63;72.98
21086;BME280;72320;50.082;20.000;2024-03-17T03:53:11;99383.45;;;6.70;72.83
21086;BME280;72320;50.082;20.000;2024-03-17T03:55:37;99387.17;;;6.74;72.81
21086;BME280;72320;50.082;20.000;2024-03-17T03:58:03;99389.20;;;6.74;72.65
21086;BME280;72320;50.082;20.000;2024-03-17T04:00:29;99391.71;;;6.69;72.54
21086;BME280;72320;50.082;20.000;2024-03-17T04:02:59;99392.09;;;6.70;72.44
21086;BME280;72320;50.082;20.000;2024-03-17T04:05:45;99391.53;;;6.73;72.46
21086;BME280;72320;50.082;20.000;2024-03-17T04:08:35;99395.27;;;6.71;72.31
21086;BME280;72320;50.082;20.000;2024-03-17T04:11:02;99398.21;;;6.70;72.34
21086;BME280;72320;50.082;20.000;2024-03-17T04:13:51;99400.22;;;6.68;72.35
21086;BME280;72320;50.082;20.000;2024-03-17T04:16:36;99402.23;;;6.64;72.42
21086;BME280;72320;50.082;20.000;2024-03-17T04:19:22;99405.73;;;6.57;72.42
21086;BME280;72320;50.082;20.000;2024-03-17T04:22:08;99406.86;;;6.56;72.40
21086;BME280;72320;50.082;20.000;2024-03-17T04:24:53;99403.88;;;6.56;72.40
21086;BME280;72320;50.082;20.000;2024-03-17T04:27:39;99399.77;;;6.51;72.33
21086;BME280;72320;50.082;20.000;2024-03-17T04:30:25;99399.08;;;6.48;72.57
21086;BME280;72320;50.082;20.000;2024-03-17T04:33:12;99400.93;;;6.39;72.52
21086;BME280;72320;50.082;20.000;2024-03-17T04:35:58;99407.55;;;6.37;72.49
21086;BME280;72320;50.082;20.000;2024-03-17T04:38:45;99405.05;;;6.33;72.60
21086;BME280;72320;50.082;20.000;2024-03-17T04:41:31;99412.87;;;6.23;72.40
21086;BME280;72320;50.082;20.000;2024-03-17T04:44:17;99416.52;;;6.18;72.17
21086;BME280;72320;50.082;20.000;2024-03-17T04:47:05;99422.30;;;6.09;72.04
21086;BME280;72320;50.082;20.000;2024-03-17T04:49:53;99425.41;;;5.86;71.82
21086;BME280;72320;50.082;20.000;2024-03-17T04:52:39;99429.73;;;5.77;71.71
21086;BME280;72320;50.082;20.000;2024-03-17T04:55:07;99429.17;;;5.73;71.75
21086;BME280;72320;50.082;20.000;2024-03-17T04:57:52;99434.67;;;5.64;71.78
21086;BME280;72320;50.082;20.000;2024-03-17T05:00:38;99434.66;;;5.56;71.79
21086;BME280;72320;50.082;20.000;2024-03-17T05:03:21;99441.10;;;5.52;71.91
21086;BME280;72320;50.082;20.000;2024-03-17T05:06:06;99442.45;;;5.55;72.10
21086;BME280;72320;50.082;20.000;2024-03-17T05:08:53;99448.42;;;5.61;72.02
21086;BME280;72320;50.082;20.000;2024-03-17T05:11:42;99452.48;;;5.55;72.13
21086;BME280;72320;50.082;20.000;2024-03-17T05:14:28;99456.40;;;5.47;71.95
21086;BME280;72320;50.082;20.000;2024-03-17T05:17:14;99461.33;;;5.33;71.72
21086;BME280;72320;50.082;20.000;2024-03-17T05:20:03;99464.55;;;5.26;71.52
21086;BME280;72320;50.082;20.000;2024-03-17T05:22:50;99463.90;;;5.15;71.44
21086;BME280;72320;50.082;20.000;2024-03-17T05:25:38;99459.34;;;5.11;71.43
21086;BME280;72320;50.082;20.000;2024-03-17T05:28:25;99464.06;;;5.02;71.30
21086;BME280;72320;50.082;20.000;2024-03-17T05:31:11;99464.89;;;4.96;71.10
21086;BME280;72320;50.082;20.000;2024-03-17T05:34:00;99475.70;;;4.94;71.03
21086;BME280;72320;50.082;20.000;2024-03-17T05:36:45;99475.63;;;5.00;70.79
21086;BME280;72320;50.082;20.000;2024-03-17T05:39:31;99478.23;;;5.00;70.43
21086;BME280;72320;50.082;20.000;2024-03-17T05:42:17;99484.77;;;4.98;69.90
21086;BME280;72320;50.082;20.000;2024-03-17T05:45:04;99483.31;;;5.00;69.18
21086;BME280;72320;50.082;20.000;2024-03-17T05:47:50;99481.34;;;5.06;68.68
21086;BME280;72320;50.082;20.000;2024-03-17T05:50:36;99480.11;;;5.12;68.36
21086;BME280;72320;50.082;20.000;2024-03-17T05:53:23;99484.30;;;5.17;67.88
21086;BME280;72320;50.082;20.000;2024-03-17T05:56:12;99486.30;;;5.17;67.56
21086;BME280;72320;50.082;20.000;2024-03-17T05:58:58;99492.95;;;5.22;67.24
21086;BME280;72320;50.082;20.000;2024-03-17T06:01:44;99498.06;;;5.29;66.84
21086;BME280;72320;50.082;20.000;2024-03-17T06:04:30;99498.55;;;5.28;66.24
21086;BME280;72320;50.082;20.000;2024-03-17T06:07:16;99503.23;;;5.31;65.70
21086;BME280;72320;50.082;20.000;2024-03-17T06:10:04;99502.75;;;5.36;65.10
21086;BME280;72320;50.082;20.000;2024-03-17T06:12:51;99506.58;;;5.33;64.47
21086;BME280;72320;50.082;20.000;2024-03-17T06:15:37;99503.94;;;5.37;64.03
21086;BME280;72320;50.082;20.000;2024-03-17T06:18:24;99497.52;;;5.43;63.47
21086;BME280;72320;50.082;20.000;2024-03-17T06:21:11;99504.05;;;5.48;62.97
21086;BME280;72320;50.082;20.000;2024-03-17T06:23:57;99497.06;;;5.50;62.62
21086;BME280;72320;50.082;20.000;2024-03-17T06:26:23;99502.92;;;5.54;62.25
21086;BME280;72320;50.082;20.000;2024-03-17T06:28:49;99502.44;;;5.51;62.00
21086;BME280;72320;50.082;20.000;2024-03-17T06:31:16;99507.92;;;5.56;61.77
21086;BME280;72320;50.082;20.000;2024-03-17T06:33:42;99508.24;;;5.57;61.63
21086;BME280;72320;50.082;20.000;2024-03-17T06:36:08;99510.46;;;5.55;61.13
21086;BME280;72320;50.082;20.000;2024-03-17T06:38:34;99512.18;;;5.53;61.03
21086;BME280;72320;50.082;20.000;2024-03-17T06:41:19;99519.13;;;5.44;60.48
21086;BME280;72320;50.082;20.000;2024-03-17T06:44:06;99523.64;;;5.34;60.25
21086;BME280;72320;50.082;20.000;2024-03-17T06:46:32;99525.58;;;5.34;60.15
21086;BME280;72320;50.082;20.000;2024-03-17T06:48:59;99520.85;;;5.28;59.68
21086;BME280;72320;50.082;20.000;2024-03-17T06:51:25;99522.23;;;5.24;59.51
21086;BME280;72320;50.082;20.000;2024-03-17T06:53:51;99529.55;;;5.27;59.49
21086;BME280;72320;50.082;20.000;2024-03-17T06:56:16;99521.80;;;5.26;59.44
21086;BME280;72320;50.082;20.000;2024-03-17T06:59:02;99523.20;;;5.36;59.46
21086;BME280;72320;50.082;20.000;2024-03-17T07:01:48;99531.24;;;5.30;59.51
21086;BME280;72320;50.082;20.000;2024-03-17T07:04:36;99528.59;;;5.30;59.56
21086;BME280;72320;50.082;20.000;2024-03-17T07:07:21;99525.33;;;5.36;59.57
21086;BME280;72320;50.082;20.000;2024-03-17T07:10:08;99527.03;;;5.41;59.71
21086;BME280;72320;50.082;20.000;2024-03-17T07:12:55;99524.98;;;5.47;59.52
21086;BME280;72320;50.082;20.000;2024-03-17T07:15:47;99517.96;;;5.51;59.39
21086;BME280;72320;50.082;20.000;2024-03-17T07:18:34;99511.92;;;5.57;59.38
21086;BME280;72320;50.082;20.000;2024-03-17T07:21:20;99514.84;;;5.55;59.15
21086;BME280;72320;50.082;20.000;2024-03-17T07:24:05;99521.74;;;5.63;59.00
21086;BME280;72320;50.082;20.000;2024-03-17T07:26:52;99517.94;;;5.70;59.11
21086;BME280;72320;50.082;20.000;2024-03-17T07:29:38;99511.35;;;5.79;59.13
21086;BME280;72320;50.082;20.000;2024-03-17T07:32:26;99505.57;;;5.87;59.11
21086;BME280;72320;50.082;20.000;2024-03-17T07:35:13;99503.81;;;5.94;58.66
21086;BME280;72320;50.082;20.000;2024-03-17T07:38:00;99506.33;;;5.94;58.63
21086;BME280;72320;50.082;20.000;2024-03-17T07:40:57;99507.04;;;5.97;58.36
21086;BME280;72320;50.082;20.000;2024-03-17T07:43:43;99512.94;;;5.97;57.68
21086;BME280;72320;50.082;20.000;2024-03-17T07:46:29;99513.94;;;6.10;57.37
21086;BME280;72320;50.082;20.000;2024-03-17T07:49:15;99512.45;;;6.40;57.07
21086;BME280;72320;50.082;20.000;2024-03-17T07:52:01;99509.42;;;6.54;56.08
21086;BME280;72320;50.082;20.000;2024-03-17T07:54:47;99522.54;;;6.47;55.39
21086;BME280;72320;50.082;20.000;2024-03-17T07:57:33;99525.95;;;6.27;54.60
21086;BME280;72320;50.082;20.000;2024-03-17T08:00:19;99525.52;;;6.31;54.37
21086;BME280;72320;50.082;20.000;2024-03-17T08:03:04;99529.91;;;6.46;54.59
21086;BME280;72320;50.082;20.000;2024-03-17T08:05:50;99523.78;;;6.39;53.70
21086;BME280;72320;50.082;20.000;2024-03-17T08:08:37;99526.16;;;6.38;53.08
21086;BME280;72320;50.082;20.000;2024-03-17T08:11:23;99523.79;;;6.58;53.19
21086;BME280;72320;50.082;20.000;2024-03-17T08:14:09;99525.40;;;6.67;52.52
21086;BME280;72320;50.082;20.000;2024-03-17T08:16:55;99523.52;;;6.59;51.90
21086;BME280;72320;50.082;20.000;2024-03-17T08:19:41;99523.03;;;6.44;51.83
21086;BME280;72320;50.082;20.000;2024-03-17T08:22:28;99521.52;;;6.54;51.90
21086;BME280;72320;50.082;20.000;2024-03-17T08:25:14;99523.99;;;6.69;52.08
21086;BME280;72320;50.082;20.000;2024-03-17T08:28:01;99521.37;;;6.89;52.15
21086;BME280;72320;50.082;20.000;2024-03-17T08:31:01;99530.37;;;7.37;52.00
21086;BME280;72320;50.082;20.000;2024-03-17T08:33:47;99527.02;;;7.74;51.05
21086;BME280;72320;50.082;20.000;2024-03-17T08:36:33;99511.58;;;7.98;49.50
21086;BME280;72320;50.082;20.000;2024-03-17T08:39:19;99526.27;;;7.97;48.42
21086;BME280;72320;50.082;20.000;2024-03-17T08:42:06;99529.29;;;8.01;47.95
21086;BME280;72320;50.082;20.000;2024-03-17T08:44:53;99523.17;;;8.04;47.71
21086;BME280;72320;50.082;20.000;2024-03-17T08:47:39;99531.63;;;8.33;47.29
21086;BME280;72320;50.082;20.000;2024-03-17T08:50:27;99523.08;;;8.26;46.77
21086;BME280;72320;50.082;20.000;2024-03-17T08:53:12;99527.86;;;8.20;47.03
21086;BME280;72320;50.082;20.000;2024-03-17T08:55:59;99524.65;;;8.00;46.64
21086;BME280;72320;50.082;20.000;2024-03-17T08:58:46;99519.81;;;7.93;46.50
21086;BME280;72320;50.082;20.000;2024-03-17T09:01:32;99523.55;;;8.07;46.34
21086;BME280;72320;50.082;20.000;2024-03-17T09:03:58;99517.98;;;8.07;46.54
21086;BME280;72320;50.082;20.000;2024-03-17T09:06:43;99517.88;;;8.00;46.90
21086;BME280;72320;50.082;20.000;2024-03-17T09:09:30;99511.50;;;7.70;47.23
21086;BME280;72320;50.082;20.000;2024-03-17T09:12:15;99519.59;;;7.46;47.61
21086;BME280;72320;50.082;20.000;2024-03-17T09:15:01;99506.26;;;7.65;47.79
21086;BME280;72320;50.082;20.000;2024-03-17T09:17:47;99499.50;;;7.71;47.51
21086;BME280;72320;50.082;20.000;2024-03-17T09:20:31;99498.34;;;7.62;47.52
21086;BME280;72320;50.082;20.000;2024-03-17T09:23:18;99506.10;;;7.52;47.99
21086;BME280;72320;50.082;20.000;2024-03-17T09:26:01;99515.84;;;7.30;47.75
21086;BME280;72320;50.082;20.000;2024-03-17T09:28:48;99505.86;;;7.11;47.94
21086;BME280;72320;50.082;20.000;2024-03-17T09:31:14;99507.05;;;7.16;47.91
21086;BME280;72320;50.082;20.000;2024-03-17T09:33:40;99508.77;;;7.19;47.85
21086;BME280;72320;50.082;20.000;2024-03-17T09:36:08;99513.41;;;7.09;47.80
21086;BME280;72320;50.082;20.000;2024-03-17T09:38:37;99511.23;;;7.17;47.83
21086;BME280;72320;50.082;20.000;2024-03-17T09:41:06;99508.30;;;7.33;47.70
21086;BME280;72320;50.082;20.000;2024-03-17T09:43:56;99508.90;;;7.61;47.29
21086;BME280;72320;50.082;20.000;2024-03-17T09:46:23;99502.34;;;7.89;46.98
21086;BME280;72320;50.082;20.000;2024-03-17T09:48:53;99508.05;;;8.15;46.61
21086;BME280;72320;50.082;20.000;2024-03-17T09:51:24;99508.20;;;8.34;46.41
21086;BME280;72320;50.082;20.000;2024-03-17T09:53:51;99508.97;;;8.48;46.14
21086;BME280;72320;50.082;20.000;2024-03-17T09:56:21;99510.19;;;8.46;45.79
21086;BME280;72320;50.082;20.000;2024-03-17T09:59:07;99503.09;;;8.56;45.71
21086;BME280;72320;50.082;20.000;2024-03-17T10:01:55;99494.93;;;8.62;45.49
21086;BME280;72320;50.082;20.000;2024-03-17T10:04:32;99494.61;;;8.68;44.81
21086;BME280;72320;50.082;20.000;2024-03-17T10:07:37;99494.36;;;8.98;44.56
21086;BME280;72320;50.082;20.000;2024-03-17T10:10:24;99499.38;;;9.46;43.90
21086;BME280;72320;50.082;20.000;2024-03-17T10:12:54;99493.27;;;9.82;43.30
21086;BME280;72320;50.082;20.000;2024-03-17T10:15:48;99487.19;;;10.17;42.19
21086;BME280;72320;50.082;20.000;2024-03-17T10:18:34;99488.36;;;10.11;41.46
21086;BME280;72320;50.082;20.000;2024-03-17T10:21:02;99482.42;;;10.07;41.42
21086;BME280;72320;50.082;20.000;2024-03-17T10:24:22;99489.48;;;9.64;41.06
21086;BME280;72320;50.082;20.000;2024-03-17T10:27:10;99485.00;;;9.37;41.78
21086;BME280;72320;50.082;20.000;2024-03-17T10:29:56;99481.95;;;9.18;42.52
21086;BME280;72320;50.082;20.000;2024-03-17T10:32:45;99469.56;;;9.06;42.57
21086;BME280;72320;50.082;20.000;2024-03-17T10:35:36;99469.38;;;9.13;42.59
21086;BME280;72320;50.082;20.000;2024-03-17T10:38:22;99469.42;;;9.55;42.15
21086;BME280;72320;50.082;20.000;2024-03-17T10:41:09;99463.80;;;9.72;41.55
21086;BME280;72320;50.082;20.000;2024-03-17T10:43:55;99466.70;;;9.59;41.05
21086;BME280;72320;50.082;20.000;2024-03-17T10:46:42;99451.92;;;9.95;40.80
21086;BME280;72320;50.082;20.000;2024-03-17T10:49:33;99450.95;;;9.98;40.40
21086;BME280;72320;50.082;20.000;2024-03-17T10:52:19;99451.60;;;9.97;40.58
21086;BME280;72320;50.082;20.000;2024-03-17T10:55:08;99465.20;;;9.84;40.25
21086;BME280;72320;50.082;20.000;2024-03-17T10:58:03;99468.30;;;9.74;40.12
21086;BME280;72320;50.082;20.000;2024-03-17T11:00:50;99458.31;;;9.94;39.72
21086;BME280;72320;50.082;20.000;2024-03-17T11:03:38;99458.71;;;10.10;39.45
21086;BME280;72320;50.082;20.000;2024-03-17T11:06:24;99460.09;;;10.09;39.27
21086;BME280;72320;50.082;20.000;2024-03-17T11:09:16;99451.56;;;9.86;39.53
21086;BME280;72320;50.082;20.000;2024-03-17T11:12:02;99456.76;;;9.72;39.85
21086;BME280;72320;50.082;20.000;2024-03-17T11:14:48;99459.08;;;9.58;39.75
21086;BME280;72320;50.082;20.000;2024-03-17T11:17:29;99450.55;;;9.38;39.78
21086;BME280;72320;50.082;20.000;2024-03-17T11:20:25;99445.99;;;9.29;39.89
21086;BME280;72320;50.082;20.000;2024-03-17T11:23:27;99445.85;;;9.14;39.79
21086;BME280;72320;50.082;20.000;2024-03-17T11:25:54;99440.82;;;8.87;39.91
21086;BME280;72320;50.082;20.000;2024-03-17T11:31:40;99448.02;;;8.39;40.09
21086;BME280;72320;50.082;20.000;2024-03-17T11:34:37;99446.91;;;8.24;40.15
21086;BME280;72320;50.082;20.000;2024-03-17T11:37:43;99445.48;;;7.99;40.37
21086;BME280;72320;50.082;20.000;2024-03-17T11:40:29;99436.46;;;8.19;40.18
21086;BME280;72320;50.082;20.000;2024-03-17T11:43:17;99443.71;;;8.59;40.57
21086;BME280;72320;50.082;20.000;2024-03-17T11:46:03;99440.46;;;8.90;39.92
21086;BME280;72320;50.082;20.000;2024-03-17T11:48:49;99434.06;;;8.92;39.30
21086;BME280;72320;50.082;20.000;2024-03-17T11:51:38;99430.66;;;9.40;39.07
21086;BME280;72320;50.082;20.000;2024-03-17T11:54:26;99430.17;;;9.87;38.41
21086;BME280;72320;50.082;20.000;2024-03-17T11:57:24;99427.05;;;10.15;37.73
21086;BME280;72320;50.082;20.000;2024-03-17T12:00:23;99414.36;;;10.52;37.58
21086;BME280;72320;50.082;20.000;2024-03-17T12:03:11;99410.08;;;10.77;37.29
21086;BME280;72320;50.082;20.000;2024-03-17T12:05:39;99413.25;;;10.43;36.86
21086;BME280;72320;50.082;20.000;2024-03-17T12:08:25;99417.00;;;10.13;37.19
21086;BME280;72320;50.082;20.000;2024-03-17T12:11:17;99406.38;;;10.10;37.03
21086;BME280;72320;50.082;20.000;2024-03-17T12:14:39;99410.67;;;10.30;36.98
21086;BME280;72320;50.082;20.000;2024-03-17T12:17:25;99399.41;;;11.19;36.48
21086;BME280;72320;50.082;20.000;2024-03-17T12:20:37;99394.05;;;11.80;35.90
21086;BME280;72320;50.082;20.000;2024-03-17T12:23:25;99385.86;;;11.82;35.16
21086;BME280;72320;50.082;20.000;2024-03-17T12:26:16;99386.05;;;11.59;35.34
21086;BME280;72320;50.082;20.000;2024-03-17T12:28:46;99394.27;;;11.48;35.21
21086;BME280;72320;50.082;20.000;2024-03-17T12:31:14;99394.08;;;11.44;35.30
21086;BME280;72320;50.082;20.000;2024-03-17T12:33:40;99387.63;;;11.27;34.76
21086;BME280;72320;50.082;20.000;2024-03-17T12:36:11;99375.77;;;11.27;34.80
21086;BME280;72320;50.082;20.000;2024-03-17T12:38:39;99372.58;;;11.28;34.76
21086;BME280;72320;50.082;20.000;2024-03-17T12:41:16;99365.38;;;11.49;35.05
21086;BME280;72320;50.082;20.000;2024-03-17T12:44:02;99377.13;;;11.76;34.69
21086;BME280;72320;50.082;20.000;2024-03-17T12:46:28;99369.30;;;11.74;34.69
21086;BME280;72320;50.082;20.000;2024-03-17T12:49:00;99366.48;;;11.80;34.69
21086;BME280;72320;50.082;20.000;2024-03-17T12:51:34;99362.95;;;11.63;34.39
21086;BME280;72320;50.082;20.000;2024-03-17T12:54:41;99355.02;;;11.46;34.48
21086;BME280;72320;50.082;20.000;2024-03-17T12:57:13;99360.30;;;11.22;34.40
21086;BME280;72320;50.082;20.000;2024-03-17T12:59:57;99357.53;;;11.16;34.53
21086;BME280;72320;50.082;20.000;2024-03-17T13:02:42;99361.17;;;11.19;34.70
21086;BME280;72320;50.082;20.000;2024-03-17T13:05:32;99365.42;;;11.04;34.59
21086;BME280;72320;50.082;20.000;2024-03-17T13:08:18;99367.21;;;11.26;34.54
21086;BME280;72320;50.082;20.000;2024-03-17T13:11:03;99353.87;;;11.60;34.57
21086;BME280;72320;50.082;20.000;2024-03-17T13:13:50;99343.87;;;11.48;34.43
21086;BME280;72320;50.082;20.000;2024-03-17T13:16:35;99358.46;;;11.16;34.36
21086;BME280;72320;50.082;20.000;2024-03-17T13:19:21;99354.29;;;11.09;34.44
21086;BME280;72320;50.082;20.000;2024-03-17T13:22:10;99351.50;;;11.29;34.49
21086;BME280;72320;50.082;20.000;2024-03-17T13:24:56;99351.82;;;11.40;34.23
21086;BME280;72320;50.082;20.000;2024-03-17T13:27:44;99350.20;;;11.31;34.23
21086;BME280;72320;50.082;20.000;2024-03-17T13:30:33;99350.54;;;11.26;34.29
21086;BME280;72320;50.082;20.000;2024-03-17T13:33:21;99347.85;;;11.34;34.07
21086;BME280;72320;50.082;20.000;2024-03-17T13:36:08;99345.42;;;11.59;33.77
21086;BME280;72320;50.082;20.000;2024-03-17T13:38:55;99339.86;;;11.82;32.93
21086;BME280;72320;50.082;20.000;2024-03-17T13:41:41;99344.84;;;11.98;32.59
21086;BME280;72320;50.082;20.000;2024-03-17T13:44:28;99338.76;;;12.06;32.49
21086;BME280;72320;50.082;20.000;2024-03-17T13:47:14;99342.75;;;12.23;32.52
21086;BME280;72320;50.082;20.000;2024-03-17T13:50:00;99340.49;;;12.40;32.51
21086;BME280;72320;50.082;20.000;2024-03-17T13:52:46;99339.59;;;12.44;32.03
21086;BME280;72320;50.082;20.000;2024-03-17T13:55:32;99335.06;;;12.50;31.90
21086;BME280;72320;50.082;20.000;2024-03-17T13:58:18;99339.17;;;12.40;32.16
21086;BME280;72320;50.082;20.000;2024-03-17T14:01:04;99331.34;;;12.00;32.31
21086;BME280;72320;50.082;20.000;2024-03-17T14:03:49;99330.17;;;11.42;32.86
21086;BME280;72320;50.082;20.000;2024-03-17T14:06:35;99336.48;;;10.92;33.29
21086;BME280;72320;50.082;20.000;2024-03-17T14:09:23;99327.81;;;10.54;33.67
21086;BME280;72320;50.082;20.000;2024-03-17T14:12:08;99319.36;;;10.30;34.27
21086;BME280;72320;50.082;20.000;2024-03-17T14:14:54;99325.91;;;10.11;34.94
21086;BME280;72320;50.082;20.000;2024-03-17T14:17:46;99326.38;;;9.96;35.01
21086;BME280;72320;50.082;20.000;2024-03-17T14:20:33;99320.88;;;9.69;35.19
21086;BME280;72320;50.082;20.000;2024-03-17T14:23:19;99318.80;;;9.63;35.39
21086;BME280;72320;50.082;20.000;2024-03-17T14:25:46;99321.52;;;9.64;35.64